Time;durP1;ratioP1;P1;durP2;ratioP2;P2;SDS_P1;SDS_P2;PMS_P1;PMS_P2;Temp;Humidity;BMP_temperature;BMP_pressure;BME280_temperature;BME280_humidity;BME280_pressure;Samples;Min_cycle;Max_cycle;Signal;HPM_P1;HPM_P2
2022/05/23 00:01:49;;;;;;;26.10;8.15;;;15.80;99.90;;;;;;5114490;28;20035;-53
2022/05/23 00:04:15;;;;;;;16.45;8.13;;;15.90;99.90;;;;;;5114411;28;20492;-53
2022/05/23 00:06:42;;;;;;;23.58;8.75;;;15.90;99.90;;;;;;5114617;28;20020;-53
2022/05/23 00:09:11;;;;;;;21.65;8.50;;;15.90;99.90;;;;;;5114405;28;20019;-53
2022/05/23 00:11:37;;;;;;;20.00;8.15;;;15.80;99.90;;;;;;5114109;28;20050;-53
2022/05/23 00:14:03;;;;;;;22.88;8.02;;;15.80;99.90;;;;;;5114416;28;20024;-53
2022/05/23 00:16:40;;;;;;;20.80;8.93;;;15.90;99.90;;;;;;5114207;28;20028;-53
2022/05/23 00:19:09;;;;;;;26.52;8.85;;;15.80;99.90;;;;;;5114329;28;20102;-53
2022/05/23 00:21:36;;;;;;;29.67;9.45;;;15.70;99.90;;;;;;5113961;28;20028;-53
2022/05/23 00:24:02;;;;;;;23.95;9.75;;;15.70;99.90;;;;;;5114199;28;20024;-53
2022/05/23 00:26:28;;;;;;;21.00;8.50;;;15.80;99.90;;;;;;5116255;28;20392;-53
2022/05/23 00:28:54;;;;;;;20.10;8.38;;;15.70;99.90;;;;;;5117820;28;20028;-53
2022/05/23 00:31:20;;;;;;;23.75;9.20;;;15.70;99.90;;;;;;5117894;28;20488;-53
2022/05/23 00:36:32;;;;;;;20.95;8.73;;;15.60;99.90;;;;;;5117656;28;20417;-53
2022/05/23 00:38:59;;;;;;;19.75;8.63;;;15.50;99.90;;;;;;5117866;28;20106;-53
2022/05/23 00:44:27;;;;;;;19.02;8.55;;;15.50;99.90;;;;;;5099459;28;20146;-53
2022/05/23 00:46:55;;;;;;;17.05;8.25;;;15.40;99.90;;;;;;5117654;28;20511;-53
2022/05/23 00:49:31;;;;;;;20.75;8.75;;;15.40;99.90;;;;;;5117689;28;20028;-53
2022/05/23 00:52:02;;;;;;;19.38;8.52;;;15.40;99.90;;;;;;5117292;28;20541;-53
2022/05/23 00:54:35;;;;;;;16.35;7.60;;;15.30;99.90;;;;;;5117403;28;20026;-53
2022/05/23 00:57:02;;;;;;;18.00;8.60;;;15.30;99.90;;;;;;5117377;28;20088;-53
2022/05/23 00:59:32;;;;;;;14.93;8.02;;;15.30;99.90;;;;;;5098986;28;20067;-53
2022/05/23 01:02:01;;;;;;;16.15;8.93;;;15.20;99.90;;;;;;5099115;28;20438;-53
2022/05/23 01:04:40;;;;;;;16.60;8.25;;;15.20;99.90;;;;;;5098809;28;20091;-53
2022/05/23 01:07:08;;;;;;;16.30;8.05;;;15.30;99.90;;;;;;5098812;28;20023;-53
2022/05/23 01:09:35;;;;;;;16.90;8.23;;;15.20;99.90;;;;;;5117006;28;20043;-53
2022/05/23 01:12:02;;;;;;;11.95;8.30;;;15.20;99.90;;;;;;5098940;28;20028;-53
2022/05/23 01:14:51;;;;;;;16.45;8.70;;;15.20;99.90;;;;;;5117312;28;20038;-53
2022/05/23 01:17:18;;;;;;;14.80;8.65;;;15.20;99.90;;;;;;5117116;28;20038;-53
2022/05/23 01:19:44;;;;;;;13.82;8.35;;;15.20;99.90;;;;;;5098612;28;20035;-53
2022/05/23 01:22:34;;;;;;;11.90;8.20;;;15.20;99.90;;;;;;5098475;28;20031;-53
2022/05/23 01:25:23;;;;;;;15.50;9.23;;;15.20;99.90;;;;;;5098693;28;20027;-53
2022/05/23 01:27:51;;;;;;;17.48;8.82;;;15.20;99.90;;;;;;5116687;28;20068;-53
2022/05/23 01:30:18;;;;;;;25.63;11.02;;;15.20;99.90;;;;;;5116677;28;20103;-53
2022/05/23 01:33:02;;;;;;;19.40;9.13;;;15.30;99.90;;;;;;5116892;28;20024;-53
2022/05/23 01:35:28;;;;;;;15.00;8.60;;;15.40;99.90;;;;;;5098463;28;20374;-53
2022/05/23 01:37:54;;;;;;;12.98;8.15;;;15.40;99.90;;;;;;5097312;28;20109;-53
2022/05/23 01:40:40;;;;;;;12.13;7.10;;;15.40;99.90;;;;;;5115774;28;20396;-53
2022/05/23 01:43:11;;;;;;;10.18;6.68;;;15.40;99.90;;;;;;5098258;28;20104;-53
2022/05/23 01:45:38;;;;;;;12.57;6.78;;;15.40;99.90;;;;;;5098152;28;20019;-53
2022/05/23 01:48:29;;;;;;;10.13;6.85;;;15.40;99.90;;;;;;5098125;28;20267;-53
2022/05/23 01:50:55;;;;;;;14.93;7.78;;;15.40;99.90;;;;;;5098136;28;20012;-53
2022/05/23 01:53:21;;;;;;;25.15;7.93;;;15.40;99.90;;;;;;5097970;28;20027;-53
2022/05/23 01:56:05;;;;;;;25.67;8.57;;;15.50;99.90;;;;;;5097876;28;20038;-53
2022/05/23 02:01:34;;;;;;;27.08;8.30;;;15.50;99.90;;;;;;5097916;28;20051;-53
2022/05/23 02:04:00;;;;;;;25.48;8.50;;;15.40;99.90;;;;;;5097664;28;20032;-53
2022/05/23 02:06:38;;;;;;;28.85;7.72;;;15.40;99.90;;;;;;5097749;28;20480;-53
2022/05/23 02:09:08;;;;;;;20.88;7.85;;;15.50;99.90;;;;;;5097635;28;20027;-53
2022/05/23 02:11:43;;;;;;;39.30;8.23;;;15.50;99.90;;;;;;5097555;28;20035;-53
2022/05/23 02:14:15;;;;;;;32.38;8.07;;;15.50;99.90;;;;;;5097634;28;20035;-53
2022/05/23 02:16:44;;;;;;;47.28;9.15;;;15.50;99.90;;;;;;5097348;28;20042;-53
2022/05/23 02:19:10;;;;;;;37.10;9.27;;;15.50;99.90;;;;;;5115809;28;20380;-53
2022/05/23 02:21:36;;;;;;;24.90;8.27;;;15.50;99.90;;;;;;5097174;28;20038;-53
2022/05/23 02:24:03;;;;;;;32.03;9.20;;;15.50;99.90;;;;;;5115977;28;20031;-53
2022/05/23 02:26:31;;;;;;;22.65;7.90;;;15.50;99.90;;;;;;5115464;28;20381;-53
2022/05/23 02:29:01;;;;;;;20.60;8.15;;;15.40;99.90;;;;;;5097384;28;20491;-53
2022/05/23 02:31:29;;;;;;;37.25;9.30;;;15.50;99.90;;;;;;5097407;28;20044;-53
2022/05/23 02:34:00;;;;;;;22.33;9.45;;;15.50;99.90;;;;;;5097314;28;20031;-53
2022/05/23 02:36:38;;;;;;;27.77;8.93;;;15.50;99.90;;;;;;5089331;28;20096;-53
2022/05/23 02:39:05;;;;;;;23.63;8.10;;;15.60;99.90;;;;;;5076774;28;20028;-53
2022/05/23 02:41:33;;;;;;;19.02;9.10;;;15.50;99.90;;;;;;5076827;28;20032;-53
2022/05/23 02:44:01;;;;;;;27.63;8.90;;;15.50;99.90;;;;;;5076950;28;20546;-53
2022/05/23 02:46:28;;;;;;;26.77;9.40;;;15.50;99.90;;;;;;5076692;28;20457;-53
2022/05/23 02:49:01;;;;;;;29.58;9.70;;;15.50;99.90;;;;;;5076833;28;20031;-53
2022/05/23 02:51:28;;;;;;;25.17;10.07;;;15.50;99.90;;;;;;5076767;28;20503;-53
2022/05/23 02:53:56;;;;;;;32.33;10.23;;;15.40;99.90;;;;;;5076612;28;20039;-53
2022/05/23 02:56:27;;;;;;;;;;;15.40;99.90;;;;;;5077172;28;20067;-53
2022/05/23 02:58:53;;;;;;;33.90;9.63;;;15.40;99.90;;;;;;5094744;28;19911;-53
2022/05/23 03:01:19;;;;;;;32.45;10.45;;;15.50;99.90;;;;;;5076491;28;20124;-53
2022/05/23 03:03:47;;;;;;;30.10;10.25;;;15.40;99.90;;;;;;5094560;28;20588;-53
2022/05/23 03:06:13;;;;;;;34.83;10.57;;;15.40;99.90;;;;;;5076303;28;20028;-53
2022/05/23 03:08:42;;;;;;;39.72;11.18;;;15.30;99.90;;;;;;5094844;28;20032;-53
2022/05/23 03:11:09;;;;;;;35.83;11.07;;;15.20;99.90;;;;;;5076530;28;20028;-53
2022/05/23 03:13:36;;;;;;;29.08;9.35;;;15.30;99.90;;;;;;5094444;28;20032;-53
2022/05/23 03:16:10;;;;;;;31.83;10.88;;;15.40;99.90;;;;;;5094567;28;20016;-53
2022/05/23 03:18:39;;;;;;;35.83;10.65;;;15.40;99.90;;;;;;5076319;28;20032;-53
2022/05/23 03:21:10;;;;;;;35.15;10.45;;;15.40;99.90;;;;;;5076164;28;20031;-53
2022/05/23 03:29:12;;;;;;;44.60;11.23;;;15.40;99.90;;;;;;5076112;28;20063;-53
2022/05/23 03:31:38;;;;;;;44.80;12.23;;;15.40;99.90;;;;;;5076345;28;20632;-53
2022/05/23 03:34:07;;;;;;;34.17;11.63;;;15.40;99.90;;;;;;5076427;28;20032;-53
2022/05/23 03:36:33;;;;;;;29.73;11.18;;;15.50;99.90;;;;;;5075768;28;20093;-53
2022/05/23 03:39:03;;;;;;;40.05;14.85;;;15.60;99.90;;;;;;5076560;28;20024;-53
2022/05/23 03:41:29;;;;;;;32.17;13.77;;;15.50;99.90;;;;;;5076041;28;20028;-53
2022/05/23 03:43:55;;;;;;;30.90;13.13;;;15.50;99.90;;;;;;5076091;28;20131;-53
2022/05/23 03:46:21;;;;;;;39.50;14.52;;;15.60;99.90;;;;;;5094375;28;20078;-53
2022/05/23 03:48:47;;;;;;;39.45;15.82;;;15.70;99.90;;;;;;5076304;28;20078;-53
2022/05/23 03:51:13;;;;;;;34.85;17.70;;;15.70;99.90;;;;;;5094355;28;20028;-53
2022/05/23 03:53:39;;;;;;;35.53;17.35;;;15.80;99.90;;;;;;5094136;28;20024;-53
2022/05/23 03:56:07;;;;;;;35.30;16.90;;;15.80;99.90;;;;;;5076043;28;20024;-53
2022/05/23 03:58:36;;;;;;;29.15;14.38;;;15.90;99.90;;;;;;5094161;28;20473;-53
2022/05/23 04:01:21;;;;;;;37.97;15.77;;;15.90;99.90;;;;;;5077549;28;20040;-53
2022/05/23 04:03:53;;;;;;;37.63;16.40;;;16.10;99.90;;;;;;5079681;28;20081;-53
2022/05/23 04:06:20;;;;;;;32.13;15.43;;;16.10;99.90;;;;;;5079804;28;20136;-53
2022/05/23 04:08:53;;;;;;;37.72;16.95;;;16.20;99.90;;;;;;5079648;28;20481;-53
2022/05/23 04:11:18;;;;;;;32.60;13.20;;;16.20;99.90;;;;;;5079686;28;20028;-53
2022/05/23 04:13:45;;;;;;;33.28;13.73;;;16.40;99.90;;;;;;5079718;28;20042;-53
2022/05/23 04:16:11;;;;;;;33.65;14.10;;;16.40;99.90;;;;;;5079463;28;20031;-53
2022/05/23 04:18:41;;;;;;;32.45;13.45;;;16.60;99.90;;;;;;5079432;28;20089;-53
2022/05/23 04:21:06;;;;;;;32.88;12.68;;;16.70;99.90;;;;;;5097686;28;20454;-53
2022/05/23 04:23:34;;;;;;;34.72;13.77;;;16.80;99.90;;;;;;5079599;28;20097;-53
2022/05/23 04:26:06;;;;;;;36.55;14.48;;;16.80;99.90;;;;;;5097708;28;20465;-53
2022/05/23 04:28:33;;;;;;;31.63;13.80;;;16.80;99.90;;;;;;5079352;28;20520;-53
2022/05/23 04:31:00;;;;;;;32.33;14.18;;;16.90;99.90;;;;;;5097482;28;20040;-53
2022/05/23 04:36:21;;;;;;;26.80;14.85;;;17.00;99.90;;;;;;5079062;28;20194;-53
2022/05/23 04:38:49;;;;;;;37.97;15.60;;;17.10;99.90;;;;;;5079278;28;20034;-53
2022/05/23 04:41:15;;;;;;;29.67;15.02;;;17.20;99.90;;;;;;5097295;28;20032;-53
2022/05/23 04:43:59;;;;;;;38.55;14.55;;;17.20;99.90;;;;;;5079202;28;20512;-53
2022/05/23 04:46:27;;;;;;;35.42;15.35;;;17.30;99.90;;;;;;5078901;28;20028;-53
2022/05/23 04:52:03;;;;;;;38.00;13.88;;;17.50;99.90;;;;;;5078961;28;20028;-53
2022/05/23 04:54:36;;;;;;;25.10;12.52;;;17.50;99.90;;;;;;5078676;28;20023;-53
2022/05/23 04:57:05;;;;;;;23.92;13.18;;;17.60;99.90;;;;;;5078704;28;20028;-53
2022/05/23 04:59:34;;;;;;;22.25;12.15;;;17.70;99.90;;;;;;5078799;28;20020;-53
2022/05/23 05:02:03;;;;;;;27.10;12.43;;;17.80;99.90;;;;;;5078718;28;20031;-53
2022/05/23 05:04:30;;;;;;;31.80;14.93;;;18.00;99.90;;;;;;5078453;28;20036;-53
2022/05/23 05:06:57;;;;;;;24.52;13.00;;;18.00;99.90;;;;;;5078642;28;20020;-53
2022/05/23 05:09:24;;;;;;;33.03;13.57;;;17.90;99.90;;;;;;5079186;28;20059;-53
2022/05/23 05:11:59;;;;;;;22.73;11.20;;;18.00;99.90;;;;;;5078327;28;20162;-54
2022/05/23 05:14:30;;;;;;;30.73;12.82;;;18.10;99.90;;;;;;5078133;28;20052;-53
2022/05/23 05:17:02;;;;;;;18.52;9.77;;;18.30;99.90;;;;;;5078547;28;20089;-53
2022/05/23 05:19:30;;;;;;;20.05;10.32;;;18.50;99.90;;;;;;5078190;28;20109;-53
2022/05/23 05:22:15;;;;;;;22.20;10.10;;;18.70;99.90;;;;;;5096844;28;20119;-53
2022/05/23 05:24:59;;;;;;;23.15;9.70;;;18.90;99.90;;;;;;5096519;28;20043;-53
2022/05/23 05:27:33;;;;;;;15.23;6.93;;;19.10;99.90;;;;;;5088504;28;20025;-53
2022/05/23 05:30:03;;;;;;;11.63;7.00;;;19.20;99.90;;;;;;5044683;28;20061;-54
2022/05/23 05:32:39;;;;;;;17.52;5.75;;;19.40;99.90;;;;;;5065279;28;20028;-54
2022/05/23 05:35:13;;;;;;;15.27;6.05;;;19.50;99.90;;;;;;5075694;28;20025;-53
2022/05/23 05:37:45;;;;;;;18.90;7.32;;;19.70;99.90;;;;;;5071437;28;20051;-54
2022/05/23 05:40:20;;;;;;;18.88;6.22;;;19.90;99.90;;;;;;5076481;28;20024;-54
2022/05/23 05:42:53;;;;;;;15.75;6.07;;;20.10;99.90;;;;;;5082163;28;20031;-54
2022/05/23 05:45:51;;;;;;;15.75;5.60;;;20.20;99.90;;;;;;5095890;28;20028;-53
2022/05/23 05:48:40;;;;;;;12.15;5.40;;;20.40;99.90;;;;;;5094347;28;20035;-54
2022/05/23 05:51:11;;;;;;;18.60;5.95;;;20.50;99.90;;;;;;5077283;28;20028;-54
2022/05/23 05:53:45;;;;;;;13.90;5.53;;;20.70;99.90;;;;;;5077034;28;20047;-54
2022/05/23 05:56:19;;;;;;;8.90;4.85;;;20.70;99.90;;;;;;5092566;28;20034;-54
2022/05/23 05:58:54;;;;;;;12.60;5.57;;;20.80;99.30;;;;;;5081528;28;20103;-54
2022/05/23 06:01:21;;;;;;;14.55;5.78;;;20.90;96.60;;;;;;5096985;28;20027;-54
2022/05/23 06:03:47;;;;;;;16.63;5.93;;;21.00;99.90;;;;;;5097828;28;20020;-54
2022/05/23 06:11:59;;;;;;;9.02;3.72;;;21.60;87.80;;;;;;5071822;28;20474;-54
2022/05/23 06:14:27;;;;;;;10.75;4.03;;;21.70;87.00;;;;;;5056956;28;20024;-54
2022/05/23 06:16:59;;;;;;;18.27;4.82;;;21.80;85.50;;;;;;5076157;28;20447;-54
2022/05/23 06:19:45;;;;;;;18.88;4.63;;;21.90;92.80;;;;;;5068041;28;20029;-54
2022/05/23 06:22:23;;;;;;;15.50;4.45;;;21.90;93.60;;;;;;5083697;28;20114;-54
2022/05/23 06:25:02;;;;;;;13.25;3.70;;;21.80;96.20;;;;;;5076936;28;20035;-54
2022/05/23 06:27:29;;;;;;;7.32;3.25;;;21.70;92.50;;;;;;5074977;28;20028;-54
2022/05/23 06:30:09;;;;;;;11.10;3.88;;;21.70;96.00;;;;;;5065801;28;20389;-54
2022/05/23 06:32:55;;;;;;;10.40;3.08;;;21.70;97.20;;;;;;5095226;28;20102;-54
2022/05/23 06:35:33;;;;;;;8.15;2.85;;;21.70;93.20;;;;;;5061862;28;20024;-54
2022/05/23 06:37:59;;;;;;;7.38;3.03;;;21.60;87.80;;;;;;5057703;28;20049;-54
2022/05/23 06:40:38;;;;;;;9.02;3.30;;;21.60;91.90;;;;;;5074333;28;20525;-54
2022/05/23 06:43:22;;;;;;;10.27;3.53;;;21.70;92.90;;;;;;5059769;28;20040;-54
2022/05/23 06:45:52;;;;;;;7.35;2.75;;;21.60;92.90;;;;;;5074325;28;20126;-54
2022/05/23 06:48:40;;;;;;;17.88;4.35;;;21.50;93.80;;;;;;5056491;28;20021;-54
2022/05/23 06:51:30;;;;;;;6.38;3.30;;;21.20;96.80;;;;;;5056850;28;20029;-54
2022/05/23 06:53:57;;;;;;;14.18;3.60;;;21.10;99.90;;;;;;5056250;28;20047;-54
2022/05/23 06:56:36;;;;;;;8.00;3.50;;;21.10;99.90;;;;;;5073147;28;20088;-54
2022/05/23 06:59:02;;;;;;;8.15;2.42;;;21.00;90.70;;;;;;5055248;28;20474;-54
2022/05/23 07:01:36;;;;;;;19.25;4.43;;;21.00;96.00;;;;;;5044073;28;20565;-54
2022/05/23 07:04:21;;;;;;;29.25;5.68;;;21.00;99.90;;;;;;5067264;28;20082;-54
2022/05/23 07:12:38;;;;;;;13.95;4.20;;;21.30;85.80;;;;;;5052276;28;20083;-54
2022/05/23 07:15:07;;;;;;;13.55;3.70;;;21.70;85.10;;;;;;5056101;28;20025;-54
2022/05/23 07:17:37;;;;;;;29.20;4.47;;;21.80;72.10;;;;;;5062106;28;20351;-54
2022/05/23 07:20:12;;;;;;;11.07;2.42;;;22.00;63.80;;;;;;5062352;28;20089;-55
2022/05/23 07:22:41;;;;;;;7.63;3.15;;;22.10;57.20;;;;;;5049652;28;20122;-54
2022/05/23 07:25:09;;;;;;;7.15;2.28;;;22.10;57.20;;;;;;5075067;28;20542;-54
2022/05/23 07:27:36;;;;;;;7.95;1.98;;;22.20;55.20;;;;;;5052037;28;20027;-55
2022/05/23 07:30:03;;;;;;;14.82;3.15;;;21.80;54.50;;;;;;5052048;28;20040;-54
2022/05/23 07:32:33;;;;;;;8.10;2.90;;;21.90;56.10;;;;;;5056691;28;20037;-54
2022/05/23 07:34:59;;;;;;;12.50;2.92;;;21.80;57.00;;;;;;5056714;28;20447;-54
2022/05/23 07:37:28;;;;;;;9.85;2.60;;;21.80;56.50;;;;;;5057962;28;20070;-54
2022/05/23 07:39:56;;;;;;;11.43;2.75;;;21.90;56.50;;;;;;5054927;28;20036;-54
2022/05/23 07:42:32;;;;;;;8.88;2.75;;;22.10;60.00;;;;;;5064086;28;20029;-54
2022/05/23 07:45:01;;;;;;;8.38;2.15;;;22.10;56.90;;;;;;5044072;28;20036;-54
2022/05/23 07:47:28;;;;;;;10.75;2.50;;;22.30;56.70;;;;;;5064071;28;20377;-54
2022/05/23 07:50:19;;;;;;;14.20;3.83;;;22.50;61.10;;;;;;5067870;28;20077;-54
2022/05/23 08:00:31;;;;;;;14.88;5.15;;;22.60;55.10;;;;;;5060171;28;20025;-54
2022/05/23 08:01:14;;;;;;;14.60;3.85;;;22.90;54.80;;;;;;5049408;28;20035;-54
2022/05/23 08:03:51;;;;;;;18.83;3.70;;;23.00;71.80;;;;;;5049209;28;20062;-54
2022/05/23 08:06:23;;;;;;;14.57;3.97;;;22.90;57.70;;;;;;5067099;28;20081;-54
2022/05/23 08:08:49;;;;;;;14.10;3.05;;;23.10;65.00;;;;;;5080265;28;20095;-54
2022/05/23 08:11:17;;;;;;;9.02;3.20;;;23.40;62.90;;;;;;5060850;28;20036;-54
2022/05/23 08:14:12;;;;;;;8.48;2.65;;;23.70;66.60;;;;;;5070960;28;20397;-54
2022/05/23 08:16:59;;;;;;;14.75;2.85;;;24.00;59.10;;;;;;5057964;28;20035;-55
2022/05/23 08:19:32;;;;;;;10.18;2.55;;;24.40;66.00;;;;;;5060022;28;20028;-55
2022/05/23 08:22:15;;;;;;;10.73;3.33;;;24.90;59.70;;;;;;5051814;28;20083;-55
2022/05/23 08:24:50;;;;;;;6.00;2.50;;;25.40;55.90;;;;;;5077697;28;20474;-55
2022/05/23 08:27:16;;;;;;;8.43;2.90;;;26.10;52.80;;;;;;5050251;28;20031;-55
2022/05/23 08:29:46;;;;;;;20.83;4.40;;;26.20;49.00;;;;;;5048555;28;20497;-55
2022/05/23 08:32:16;;;;;;;8.48;2.25;;;26.00;49.20;;;;;;5052450;28;20033;-55
2022/05/23 08:34:49;;;;;;;10.07;2.88;;;25.90;49.90;;;;;;5048960;28;20097;-55
2022/05/23 08:37:16;;;;;;;13.23;2.75;;;25.80;49.90;;;;;;5070620;28;20043;-55
2022/05/23 08:39:42;;;;;;;9.85;2.47;;;26.10;54.10;;;;;;5075241;28;20036;-55
2022/05/23 08:42:26;;;;;;;16.05;3.65;;;26.40;48.80;;;;;;5096322;28;20028;-55
2022/05/23 08:45:14;;;;;;;26.73;3.97;;;26.40;46.40;;;;;;5081773;28;20020;-55
2022/05/23 08:47:47;;;;;;;31.67;6.03;;;25.80;47.80;;;;;;5088849;28;20035;-55
2022/05/23 08:50:28;;;;;;;20.08;3.60;;;26.10;48.80;;;;;;5069984;28;20103;-55
2022/05/23 08:53:05;;;;;;;12.35;3.50;;;26.50;46.70;;;;;;5096223;28;20039;-55
2022/05/23 08:56:04;;;;;;;9.38;1.90;;;26.00;45.70;;;;;;5094256;28;20036;-55
2022/05/23 08:58:55;;;;;;;8.57;2.80;;;26.80;48.60;;;;;;5103598;28;20039;-55
2022/05/23 09:01:34;;;;;;;11.13;2.47;;;27.40;45.10;;;;;;5073582;28;20028;-55
2022/05/23 09:04:11;;;;;;;8.93;2.25;;;27.50;47.10;;;;;;5073286;28;20078;-56
2022/05/23 09:06:46;;;;;;;3.88;1.98;;;27.70;44.60;;;;;;5075627;28;20112;-55
2022/05/23 09:09:16;;;;;;;23.05;4.05;;;26.80;44.90;;;;;;5099568;28;20050;-55
2022/05/23 09:11:47;;;;;;;8.23;2.75;;;27.00;46.50;;;;;;5067358;28;20035;-55
2022/05/23 09:14:16;;;;;;;4.57;2.25;;;26.40;45.40;;;;;;5101201;28;20035;-55
2022/05/23 09:16:50;;;;;;;9.20;2.90;;;26.70;45.80;;;;;;5105701;28;20046;-55
2022/05/23 09:19:18;;;;;;;6.78;2.40;;;27.00;46.40;;;;;;5099656;28;20115;-55
2022/05/23 09:24:45;;;;;;;6.95;2.42;;;26.30;47.40;;;;;;5083770;28;20020;-55
2022/05/23 09:27:31;;;;;;;45.85;5.60;;;26.30;47.60;;;;;;5079293;28;20110;-55
2022/05/23 09:29:58;;;;;;;5.18;2.78;;;26.10;50.90;;;;;;5090475;28;20052;-55
2022/05/23 09:33:02;;;;;;;8.05;2.78;;;26.40;48.80;;;;;;5092200;28;20113;-55
2022/05/23 09:35:47;;;;;;;11.65;3.70;;;26.20;48.60;;;;;;5087816;28;20411;-55
2022/05/23 09:38:19;;;;;;;20.80;4.60;;;25.90;48.90;;;;;;5066818;28;20513;-55
2022/05/23 09:49:55;;;;;;;16.52;3.90;;;27.70;49.10;;;;;;5073212;28;20410;-55
2022/05/23 09:52:31;;;;;;;9.45;3.10;;;28.30;47.30;;;;;;5077726;28;20017;-55
2022/05/23 09:55:04;;;;;;;8.05;3.25;;;28.70;47.00;;;;;;5082485;28;20464;-55
2022/05/23 09:57:54;;;;;;;4.53;2.70;;;28.20;43.70;;;;;;5079700;28;20472;-55
2022/05/23 10:00:22;;;;;;;;;;;29.20;46.40;;;;;;5087629;28;20037;-55
2022/05/23 10:02:59;;;;;;;7.03;3.15;;;29.60;44.30;;;;;;5069695;28;19951;-55
2022/05/23 10:05:32;;;;;;;11.52;5.00;;;29.00;43.40;;;;;;5076205;28;20096;-55
2022/05/23 10:08:11;;;;;;;11.80;2.97;;;28.90;46.10;;;;;;5056299;28;20024;-55
2022/05/23 10:10:51;;;;;;;6.35;3.10;;;28.10;42.00;;;;;;5074140;28;20024;-55
2022/05/23 10:13:34;;;;;;;9.15;3.60;;;28.70;44.80;;;;;;5076366;28;20044;-55
2022/05/23 10:16:12;;;;;;;6.90;3.35;;;28.00;43.60;;;;;;5056353;28;20508;-55
2022/05/23 10:18:56;;;;;;;15.82;4.00;;;28.10;45.70;;;;;;5091163;28;20055;-55
2022/05/23 10:21:37;;;;;;;13.48;4.97;;;28.50;48.40;;;;;;5061885;28;20056;-55
2022/05/23 10:24:14;;;;;;;10.38;3.40;;;29.20;43.60;;;;;;5066886;28;20025;-55
2022/05/23 10:26:49;;;;;;;12.63;3.90;;;29.40;42.80;;;;;;5073466;28;20028;-55
2022/05/23 10:29:44;;;;;;;8.52;3.80;;;29.50;43.00;;;;;;5071980;28;20036;-56
2022/05/23 10:32:15;;;;;;;10.05;3.45;;;30.00;42.80;;;;;;5057802;28;20029;-56
2022/05/23 10:34:43;;;;;;;6.10;3.00;;;28.30;42.80;;;;;;5068877;28;20032;-55
2022/05/23 10:37:22;;;;;;;8.00;3.15;;;28.00;44.00;;;;;;5052499;28;20048;-55
2022/05/23 10:42:53;;;;;;;7.00;3.50;;;28.60;45.30;;;;;;5097178;28;20036;-55
2022/05/23 10:45:43;;;;;;;13.10;4.85;;;29.40;43.30;;;;;;5086070;28;20103;-55
2022/05/23 10:48:34;;;;;;;19.20;4.45;;;29.60;43.00;;;;;;5089144;28;20036;-55
2022/05/23 10:51:15;;;;;;;12.32;3.50;;;28.80;42.60;;;;;;5079244;28;20078;-55
2022/05/23 10:53:41;;;;;;;9.38;3.15;;;29.80;46.50;;;;;;5075580;28;20048;-56
2022/05/23 10:56:19;;;;;;;13.43;3.75;;;29.90;43.50;;;;;;5088667;28;20038;-55
2022/05/23 10:58:56;;;;;;;9.15;3.28;;;29.10;44.20;;;;;;5091302;28;20032;-55
2022/05/23 11:01:50;;;;;;;12.00;3.55;;;30.00;45.30;;;;;;5093115;28;20067;-55
2022/05/23 11:04:34;;;;;;;9.40;3.70;;;30.30;43.80;;;;;;5073994;28;20363;-55
2022/05/23 11:07:20;;;;;;;8.75;3.30;;;29.20;42.30;;;;;;5093545;28;20492;-55
2022/05/23 11:10:06;;;;;;;16.38;4.78;;;29.60;42.20;;;;;;5094132;28;20481;-55
2022/05/23 11:13:10;;;;;;;9.15;4.22;;;29.20;44.40;;;;;;5091358;28;20047;-55
2022/05/23 11:15:57;;;;;;;25.42;5.72;;;29.30;44.40;;;;;;5093547;28;20023;-55
2022/05/23 11:18:55;;;;;;;27.45;6.00;;;29.80;47.60;;;;;;5085380;28;20024;-55
2022/05/23 11:21:50;;;;;;;22.38;5.72;;;30.10;44.40;;;;;;5097300;28;20031;-55
2022/05/23 11:24:26;;;;;;;17.52;4.90;;;29.80;44.00;;;;;;5091391;28;20020;-55
2022/05/23 11:33:41;;;;;;;16.35;5.10;;;30.10;45.80;;;;;;5093994;28;20461;-55
2022/05/23 11:35:42;;;;;;;17.80;5.15;;;30.20;41.50;;;;;;5042048;28;20104;-55
2022/05/23 11:38:09;;;;;;;15.23;5.13;;;30.90;43.50;;;;;;5086973;28;20052;-55
2022/05/23 11:40:38;;;;;;;7.75;4.63;;;31.50;44.60;;;;;;5080382;28;20036;-55
2022/05/23 11:43:14;;;;;;;11.40;4.88;;;31.20;41.30;;;;;;5068314;28;20030;-55
2022/05/23 11:46:04;;;;;;;14.57;4.90;;;30.30;41.00;;;;;;5085281;28;20031;-55
2022/05/23 11:48:47;;;;;;;;;;;29.90;42.40;;;;;;5093475;28;20031;-55
2022/05/23 11:51:24;;;;;;;10.40;4.90;;;29.60;42.80;;;;;;5076450;28;19967;-54
2022/05/23 11:54:08;;;;;;;16.45;6.18;;;30.50;42.30;;;;;;5085917;28;20040;-55
2022/05/23 11:57:00;;;;;;;13.10;5.60;;;31.10;43.30;;;;;;5081295;28;20454;-55
2022/05/23 11:59:25;;;;;;;8.35;5.25;;;30.70;43.70;;;;;;5083083;28;20029;-55
2022/05/23 12:02:06;;;;;;;10.60;4.55;;;31.20;42.50;;;;;;5084458;28;20045;-55
2022/05/23 12:04:33;;;;;;;11.27;5.80;;;30.00;41.30;;;;;;5088226;28;20032;-54
2022/05/23 12:07:00;;;;;;;10.20;5.80;;;30.50;44.00;;;;;;5081610;28;20036;-55
2022/05/23 12:09:35;;;;;;;16.83;6.00;;;29.40;41.70;;;;;;5088283;28;20547;-55
2022/05/23 12:12:27;;;;;;;13.18;5.85;;;30.30;43.50;;;;;;5100315;28;20102;-55
2022/05/23 12:14:56;;;;;;;14.60;5.72;;;29.90;42.40;;;;;;5096376;28;20040;-55
2022/05/23 12:17:32;;;;;;;16.65;6.22;;;29.70;43.20;;;;;;5092505;28;20024;-55
2022/05/23 12:20:02;;;;;;;13.27;5.75;;;30.50;47.10;;;;;;5099693;28;20496;-55
2022/05/23 12:22:39;;;;;;;19.50;7.65;;;30.90;45.80;;;;;;5098440;28;20035;-55
2022/05/23 12:25:08;;;;;;;9.90;5.28;;;31.60;44.20;;;;;;5078246;28;20029;-55
2022/05/23 12:27:43;;;;;;;10.43;5.80;;;29.80;41.30;;;;;;5097270;28;20102;-55
2022/05/23 12:30:22;;;;;;;10.90;6.10;;;29.70;42.70;;;;;;5079056;28;20043;-55
2022/05/23 12:33:04;;;;;;;13.52;5.45;;;30.50;44.40;;;;;;5097182;28;20424;-55
2022/05/23 12:35:39;;;;;;;11.32;5.63;;;30.70;41.30;;;;;;5090399;28;20024;-55
2022/05/23 12:38:44;;;;;;;12.02;5.90;;;31.10;43.00;;;;;;5088726;28;20052;-55
2022/05/23 12:41:28;;;;;;;12.07;5.80;;;30.80;41.60;;;;;;5090696;28;20036;-55
2022/05/23 12:44:16;;;;;;;11.80;4.75;;;30.90;41.70;;;;;;5085671;28;20032;-55
2022/05/23 12:46:58;;;;;;;9.32;4.60;;;31.20;41.80;;;;;;5108713;28;20469;-55
2022/05/23 12:49:29;;;;;;;14.98;5.40;;;31.30;41.90;;;;;;5085537;28;20404;-55
2022/05/23 12:52:17;;;;;;;8.85;4.78;;;31.10;40.90;;;;;;5078779;28;20044;-55
2022/05/23 12:55:01;;;;;;;14.70;5.13;;;30.40;40.80;;;;;;5096908;28;20032;-55
2022/05/23 12:57:30;;;;;;;12.15;4.80;;;30.50;41.80;;;;;;5096792;28;20179;-55
2022/05/23 13:00:13;;;;;;;14.15;6.70;;;30.60;42.40;;;;;;5096557;28;20024;-55
2022/05/23 13:02:59;;;;;;;14.00;5.82;;;30.20;43.20;;;;;;5092003;28;20494;-55
2022/05/23 13:05:37;;;;;;;10.88;6.18;;;30.10;42.90;;;;;;5085860;28;20261;-55
2022/05/23 13:08:30;;;;;;;16.38;6.75;;;30.00;42.90;;;;;;5083771;28;20024;-55
2022/05/23 13:11:07;;;;;;;14.63;6.95;;;30.20;43.40;;;;;;5096042;28;20103;-55
2022/05/23 13:13:40;;;;;;;12.25;5.90;;;29.30;45.20;;;;;;5096192;28;20496;-55
2022/05/23 13:16:25;;;;;;;13.27;6.60;;;30.00;46.70;;;;;;5100620;28;20106;-55
2022/05/23 13:27:29;;;;;;;29.88;7.88;;;29.80;41.10;;;;;;5106309;28;20378;-55
2022/05/23 13:29:58;;;;;;;16.02;7.30;;;28.90;43.90;;;;;;5100081;28;20485;-55
2022/05/23 13:32:26;;;;;;;26.02;8.77;;;28.50;44.00;;;;;;5096224;28;20521;-55
2022/05/23 13:34:53;;;;;;;13.85;7.20;;;28.90;44.80;;;;;;5095241;28;20050;-55
2022/05/23 13:37:34;;;;;;;11.55;7.00;;;29.50;44.80;;;;;;5095997;28;20044;-55
2022/05/23 13:40:09;;;;;;;11.50;6.82;;;29.90;47.30;;;;;;5095968;28;20032;-55
2022/05/23 13:42:35;;;;;;;13.18;6.95;;;29.90;43.30;;;;;;5096021;28;20044;-55
2022/05/23 13:45:18;;;;;;;17.45;7.45;;;30.10;43.80;;;;;;5096119;28;20029;-55
2022/05/23 13:47:59;;;;;;;10.30;6.63;;;29.50;44.40;;;;;;5095832;28;20555;-55
2022/05/23 13:50:39;;;;;;;33.42;9.45;;;29.40;43.50;;;;;;5077955;28;20046;-55
2022/05/23 13:53:16;;;;;;;10.98;4.80;;;29.20;44.40;;;;;;5095712;28;20036;-55
2022/05/23 13:55:48;;;;;;;30.60;5.65;;;29.00;43.60;;;;;;5095830;28;20405;-55
2022/05/23 13:58:23;;;;;;;7.68;4.20;;;29.40;46.30;;;;;;5095762;28;20443;-55
2022/05/23 14:00:51;;;;;;;14.63;4.93;;;29.70;43.50;;;;;;5095756;28;20055;-55
2022/05/23 14:03:30;;;;;;;11.18;4.53;;;29.70;42.60;;;;;;5096081;28;20096;-55
2022/05/23 14:05:58;;;;;;;22.40;5.30;;;29.60;43.00;;;;;;5095542;28;20028;-55
2022/05/23 14:08:36;;;;;;;7.57;4.25;;;29.70;44.60;;;;;;5095702;28;20516;-55
2022/05/23 14:11:08;;;;;;;14.35;6.88;;;29.70;45.80;;;;;;5095739;28;20040;-55
2022/05/23 14:13:35;;;;;;;14.13;6.03;;;29.70;45.70;;;;;;5095564;28;20063;-55
2022/05/23 14:16:03;;;;;;;16.77;6.57;;;29.70;44.20;;;;;;5095326;28;20134;-55
2022/05/23 14:18:34;;;;;;;11.98;6.18;;;29.40;45.20;;;;;;5095319;28;20028;-55
2022/05/23 14:21:00;;;;;;;;;;;29.40;45.10;;;;;;5095976;28;20466;-55